sensor_id;sensor_type;location;lat;lon;timestamp;temperature;humidity
3488;DHT22;38546;48.170;11.724;2023-12-20T00:01:13;6.20;99.90
3488;DHT22;38546;48.170;11.724;2023-12-20T00:04:03;6.20;99.90
3488;DHT22;38546;48.170;11.724;2023-12-20T00:06:52;6.20;99.90
3488;DHT22;38546;48.170;11.724;2023-12-20T00:09:42;6.10;99.90
3488;DHT22;38546;48.170;11.724;2023-12-20T00:12:32;6.10;99.90
3488;DHT22;38546;48.170;11.724;2023-12-20T00:15:21;6.10;99.90
3488;DHT22;38546;48.170;11.724;2023-12-20T00:18:10;6.00;99.90
3488;DHT22;38546;48.170;11.724;2023-12-20T00:20:59;6.10;99.90
3488;DHT22;38546;48.170;11.724;2023-12-20T00:23:51;6.10;99.90
3488;DHT22;38546;48.170;11.724;2023-12-20T00:26:40;6.00;99.90
3488;DHT22;38546;48.170;11.724;2023-12-20T00:29:29;6.00;99.90
3488;DHT22;38546;48.170;11.724;2023-12-20T00:32:19;6.00;99.90
3488;DHT22;38546;48.170;11.724;2023-12-20T00:35:08;5.90;99.90
3488;DHT22;38546;48.170;11.724;2023-12-20T00:37:58;5.90;99.90
3488;DHT22;38546;48.170;11.724;2023-12-20T00:40:48;5.90;99.90
3488;DHT22;38546;48.170;11.724;2023-12-20T00:43:38;5.90;99.90
3488;DHT22;38546;48.170;11.724;2023-12-20T00:46:27;5.90;99.90
3488;DHT22;38546;48.170;11.724;2023-12-20T00:49:16;5.80;99.90
3488;DHT22;38546;48.170;11.724;2023-12-20T00:52:06;5.80;99.90
3488;DHT22;38546;48.170;11.724;2023-12-20T00:54:55;5.80;99.90
3488;DHT22;38546;48.170;11.724;2023-12-20T00:57:44;5.80;99.90
3488;DHT22;38546;48.170;11.724;2023-12-20T01:00:33;5.80;99.90
3488;DHT22;38546;48.170;11.724;2023-12-20T01:03:23;5.90;99.90
3488;DHT22;38546;48.170;11.724;2023-12-20T01:06:12;5.90;99.90
3488;DHT22;38546;48.170;11.724;2023-12-20T01:09:02;5.90;99.90
3488;DHT22;38546;48.170;11.724;2023-12-20T01:11:52;5.90;99.90
3488;DHT22;38546;48.170;11.724;2023-12-20T01:14:41;5.90;99.90
3488;DHT22;38546;48.170;11.724;2023-12-20T01:17:31;5.90;99.90
3488;DHT22;38546;48.170;11.724;2023-12-20T01:20:20;5.90;99.90
3488;DHT22;38546;48.170;11.724;2023-12-20T01:23:09;5.90;99.90
3488;DHT22;38546;48.170;11.724;2023-12-20T01:25:59;5.90;99.90
3488;DHT22;38546;48.170;11.724;2023-12-20T01:28:48;5.90;99.90
3488;DHT22;38546;48.170;11.724;2023-12-20T01:31:38;5.90;99.90
3488;DHT22;38546;48.170;11.724;2023-12-20T01:34:27;5.90;99.90
3488;DHT22;38546;48.170;11.724;2023-12-20T01:37:16;5.90;99.90
3488;DHT22;38546;48.170;11.724;2023-12-20T01:40:06;5.90;99.90
3488;DHT22;38546;48.170;11.724;2023-12-20T01:43:02;6.00;99.90
3488;DHT22;38546;48.170;11.724;2023-12-20T01:46:00;6.00;99.90
3488;DHT22;38546;48.170;11.724;2023-12-20T01:48:50;6.10;99.90
3488;DHT22;38546;48.170;11.724;2023-12-20T01:51:40;6.20;99.90
3488;DHT22;38546;48.170;11.724;2023-12-20T01:54:29;6.30;99.90
3488;DHT22;38546;48.170;11.724;2023-12-20T01:57:19;6.50;99.90
3488;DHT22;38546;48.170;11.724;2023-12-20T02:00:09;6.40;99.90
3488;DHT22;38546;48.170;11.724;2023-12-20T02:03:04;6.40;99.90
3488;DHT22;38546;48.170;11.724;2023-12-20T02:05:54;6.40;99.90
3488;DHT22;38546;48.170;11.724;2023-12-20T02:08:44;6.40;99.90
3488;DHT22;38546;48.170;11.724;2023-12-20T02:11:33;6.40;99.90
3488;DHT22;38546;48.170;11.724;2023-12-20T02:14:24;6.50;99.90
3488;DHT22;38546;48.170;11.724;2023-12-20T02:17:15;6.50;99.90
3488;DHT22;38546;48.170;11.724;2023-12-20T02:20:05;6.50;99.90
3488;DHT22;38546;48.170;11.724;2023-12-20T02:22:55;6.60;99.90
3488;DHT22;38546;48.170;11.724;2023-12-20T02:25:44;6.50;99.90
3488;DHT22;38546;48.170;11.724;2023-12-20T02:28:34;6.50;99.90
3488;DHT22;38546;48.170;11.724;2023-12-20T02:31:25;6.60;99.90
3488;DHT22;38546;48.170;11.724;2023-12-20T02:34:15;6.60;99.90
3488;DHT22;38546;48.170;11.724;2023-12-20T02:37:04;6.70;99.90
3488;DHT22;38546;48.170;11.724;2023-12-20T02:39:53;6.70;99.90
3488;DHT22;38546;48.170;11.724;2023-12-20T02:42:42;6.80;99.90
3488;DHT22;38546;48.170;11.724;2023-12-20T02:45:31;6.90;99.90
3488;DHT22;38546;48.170;11.724;2023-12-20T02:48:21;7.10;99.90
3488;DHT22;38546;48.170;11.724;2023-12-20T02:51:11;7.10;99.90
3488;DHT22;38546;48.170;11.724;2023-12-20T02:54:01;7.10;99.90
3488;DHT22;38546;48.170;11.724;2023-12-20T02:56:50;7.10;99.90
3488;DHT22;38546;48.170;11.724;2023-12-20T02:59:39;7.10;99.90
3488;DHT22;38546;48.170;11.724;2023-12-20T03:02:28;7.10;99.90
3488;DHT22;38546;48.170;11.724;2023-12-20T03:05:17;7.10;99.90
3488;DHT22;38546;48.170;11.724;2023-12-20T03:08:06;7.20;99.90
3488;DHT22;38546;48.170;11.724;2023-12-20T03:10:56;7.10;99.90
3488;DHT22;38546;48.170;11.724;2023-12-20T03:13:45;7.20;99.90
3488;DHT22;38546;48.170;11.724;2023-12-20T03:16:34;7.20;99.90
3488;DHT22;38546;48.170;11.724;2023-12-20T03:19:23;7.20;99.90
3488;DHT22;38546;48.170;11.724;2023-12-20T03:22:12;7.20;99.90
3488;DHT22;38546;48.170;11.724;2023-12-20T03:25:03;7.30;99.90
3488;DHT22;38546;48.170;11.724;2023-12-20T03:27:56;7.40;99.90
3488;DHT22;38546;48.170;11.724;2023-12-20T03:30:46;7.50;99.90
3488;DHT22;38546;48.170;11.724;2023-12-20T03:33:35;7.50;99.90
3488;DHT22;38546;48.170;11.724;2023-12-20T03:36:24;7.50;99.90
3488;DHT22;38546;48.170;11.724;2023-12-20T03:39:13;7.50;99.90
3488;DHT22;38546;48.170;11.724;2023-12-20T03:42:04;7.50;99.90
3488;DHT22;38546;48.170;11.724;2023-12-20T03:44:53;7.50;99.90
3488;DHT22;38546;48.170;11.724;2023-12-20T03:47:42;7.50;99.90
3488;DHT22;38546;48.170;11.724;2023-12-20T03:50:32;7.50;99.90
3488;DHT22;38546;48.170;11.724;2023-12-20T03:53:23;7.70;99.90
3488;DHT22;38546;48.170;11.724;2023-12-20T03:56:12;7.60;99.90
3488;DHT22;38546;48.170;11.724;2023-12-20T03:59:01;7.70;99.90
3488;DHT22;38546;48.170;11.724;2023-12-20T04:01:50;7.60;99.90
3488;DHT22;38546;48.170;11.724;2023-12-20T04:04:41;7.70;99.90
3488;DHT22;38546;48.170;11.724;2023-12-20T04:07:31;7.80;99.90
3488;DHT22;38546;48.170;11.724;2023-12-20T04:10:21;7.80;99.90
3488;DHT22;38546;48.170;11.724;2023-12-20T04:13:10;7.60;99.90
3488;DHT22;38546;48.170;11.724;2023-12-20T04:16:00;7.70;99.90
3488;DHT22;38546;48.170;11.724;2023-12-20T04:18:49;7.80;99.90
3488;DHT22;38546;48.170;11.724;2023-12-20T04:21:38;7.70;99.90
3488;DHT22;38546;48.170;11.724;2023-12-20T04:24:27;7.60;99.90
3488;DHT22;38546;48.170;11.724;2023-12-20T04:27:16;7.50;99.90
3488;DHT22;38546;48.170;11.724;2023-12-20T04:30:07;7.50;99.90
3488;DHT22;38546;48.170;11.724;2023-12-20T04:32:57;7.40;99.90
3488;DHT22;38546;48.170;11.724;2023-12-20T04:35:46;7.20;99.90
3488;DHT22;38546;48.170;11.724;2023-12-20T04:38:35;7.50;99.90
3488;DHT22;38546;48.170;11.724;2023-12-20T04:41:24;7.30;99.90
3488;DHT22;38546;48.170;11.724;2023-12-20T04:44:14;7.50;99.90
3488;DHT22;38546;48.170;11.724;2023-12-20T04:47:03;7.40;99.90
3488;DHT22;38546;48.170;11.724;2023-12-20T04:49:52;7.40;99.90
3488;DHT22;38546;48.170;11.724;2023-12-20T04:52:42;7.20;99.90
3488;DHT22;38546;48.170;11.724;2023-12-20T04:55:32;7.30;99.90
3488;DHT22;38546;48.170;11.724;2023-12-20T04:58:21;7.20;99.90
3488;DHT22;38546;48.170;11.724;2023-12-20T05:01:10;7.10;99.90
3488;DHT22;38546;48.170;11.724;2023-12-20T05:03:59;7.20;99.90
3488;DHT22;38546;48.170;11.724;2023-12-20T05:06:49;7.20;99.90
3488;DHT22;38546;48.170;11.724;2023-12-20T05:09:39;7.20;99.90
3488;DHT22;38546;48.170;11.724;2023-12-20T05:12:28;7.10;99.90
3488;DHT22;38546;48.170;11.724;2023-12-20T05:15:17;6.80;99.90
3488;DHT22;38546;48.170;11.724;2023-12-20T05:18:06;6.60;99.90
3488;DHT22;38546;48.170;11.724;2023-12-20T05:20:55;6.60;99.90
3488;DHT22;38546;48.170;11.724;2023-12-20T05:23:45;6.40;99.90
3488;DHT22;38546;48.170;11.724;2023-12-20T05:26:35;6.30;99.90
3488;DHT22;38546;48.170;11.724;2023-12-20T05:29:24;6.20;99.90
3488;DHT22;38546;48.170;11.724;2023-12-20T05:32:13;6.10;99.90
3488;DHT22;38546;48.170;11.724;2023-12-20T05:35:02;6.00;99.90
3488;DHT22;38546;48.170;11.724;2023-12-20T05:37:52;5.90;99.90
3488;DHT22;38546;48.170;11.724;2023-12-20T05:40:41;6.00;99.90
3488;DHT22;38546;48.170;11.724;2023-12-20T05:43:31;6.00;99.90
3488;DHT22;38546;48.170;11.724;2023-12-20T05:46:20;5.90;99.90
3488;DHT22;38546;48.170;11.724;2023-12-20T05:49:10;5.80;99.90
3488;DHT22;38546;48.170;11.724;2023-12-20T05:51:59;5.80;99.90
3488;DHT22;38546;48.170;11.724;2023-12-20T05:54:49;5.70;99.90
3488;DHT22;38546;48.170;11.724;2023-12-20T05:57:38;5.80;99.90
3488;DHT22;38546;48.170;11.724;2023-12-20T06:00:27;5.80;99.90
3488;DHT22;38546;48.170;11.724;2023-12-20T06:03:17;5.70;99.90
3488;DHT22;38546;48.170;11.724;2023-12-20T06:06:07;5.70;99.90
3488;DHT22;38546;48.170;11.724;2023-12-20T06:08:57;5.70;99.90
3488;DHT22;38546;48.170;11.724;2023-12-20T06:11:47;5.60;99.90
3488;DHT22;38546;48.170;11.724;2023-12-20T06:14:36;5.70;99.90
3488;DHT22;38546;48.170;11.724;2023-12-20T06:17:26;5.50;99.90
3488;DHT22;38546;48.170;11.724;2023-12-20T06:20:15;5.60;99.90
3488;DHT22;38546;48.170;11.724;2023-12-20T06:23:04;5.50;99.90
3488;DHT22;38546;48.170;11.724;2023-12-20T06:25:54;5.50;99.90
3488;DHT22;38546;48.170;11.724;2023-12-20T06:28:43;5.30;99.90
3488;DHT22;38546;48.170;11.724;2023-12-20T06:31:32;5.30;99.90
3488;DHT22;38546;48.170;11.724;2023-12-20T06:34:22;5.30;99.90
3488;DHT22;38546;48.170;11.724;2023-12-20T06:37:12;5.30;99.90
3488;DHT22;38546;48.170;11.724;2023-12-20T06:40:02;5.20;99.90
3488;DHT22;38546;48.170;11.724;2023-12-20T06:42:52;5.20;99.90
3488;DHT22;38546;48.170;11.724;2023-12-20T06:45:41;5.20;99.90
3488;DHT22;38546;48.170;11.724;2023-12-20T06:48:31;5.20;99.90
3488;DHT22;38546;48.170;11.724;2023-12-20T06:51:20;5.10;99.90
3488;DHT22;38546;48.170;11.724;2023-12-20T06:54:09;5.10;99.90
3488;DHT22;38546;48.170;11.724;2023-12-20T06:56:58;5.10;99.90
3488;DHT22;38546;48.170;11.724;2023-12-20T06:59:48;5.00;99.90
3488;DHT22;38546;48.170;11.724;2023-12-20T07:02:37;4.90;99.90
3488;DHT22;38546;48.170;11.724;2023-12-20T07:05:26;4.90;99.90
3488;DHT22;38546;48.170;11.724;2023-12-20T07:08:16;4.90;99.90
3488;DHT22;38546;48.170;11.724;2023-12-20T07:11:05;4.80;99.90
3488;DHT22;38546;48.170;11.724;2023-12-20T07:13:54;4.90;99.90
3488;DHT22;38546;48.170;11.724;2023-12-20T07:16:44;4.80;99.90
3488;DHT22;38546;48.170;11.724;2023-12-20T07:19:33;4.80;99.90
3488;DHT22;38546;48.170;11.724;2023-12-20T07:22:22;4.90;99.90
3488;DHT22;38546;48.170;11.724;2023-12-20T07:25:11;4.90;99.90
3488;DHT22;38546;48.170;11.724;2023-12-20T07:28:00;4.90;99.90
3488;DHT22;38546;48.170;11.724;2023-12-20T07:30:50;4.90;99.90
3488;DHT22;38546;48.170;11.724;2023-12-20T07:33:39;4.90;99.90
3488;DHT22;38546;48.170;11.724;2023-12-20T07:36:29;4.90;99.90
3488;DHT22;38546;48.170;11.724;2023-12-20T07:39:18;5.00;99.90
3488;DHT22;38546;48.170;11.724;2023-12-20T07:42:08;4.80;99.90
3488;DHT22;38546;48.170;11.724;2023-12-20T07:44:58;4.80;99.90
3488;DHT22;38546;48.170;11.724;2023-12-20T07:47:47;5.00;99.90
3488;DHT22;38546;48.170;11.724;2023-12-20T07:50:37;4.90;99.90
3488;DHT22;38546;48.170;11.724;2023-12-20T07:53:26;5.00;99.90
3488;DHT22;38546;48.170;11.724;2023-12-20T07:56:17;5.00;99.90
3488;DHT22;38546;48.170;11.724;2023-12-20T07:59:06;5.00;99.90
3488;DHT22;38546;48.170;11.724;2023-12-20T08:01:56;5.00;99.90
3488;DHT22;38546;48.170;11.724;2023-12-20T08:04:45;5.00;99.90
3488;DHT22;38546;48.170;11.724;2023-12-20T08:07:34;5.00;99.90
3488;DHT22;38546;48.170;11.724;2023-12-20T08:10:23;5.00;99.90
3488;DHT22;38546;48.170;11.724;2023-12-20T08:13:13;5.10;99.90
3488;DHT22;38546;48.170;11.724;2023-12-20T08:16:02;5.00;99.90
3488;DHT22;38546;48.170;11.724;2023-12-20T08:18:53;5.10;99.90
3488;DHT22;38546;48.170;11.724;2023-12-20T08:21:42;5.10;99.90
3488;DHT22;38546;48.170;11.724;2023-12-20T08:24:31;5.10;99.90
3488;DHT22;38546;48.170;11.724;2023-12-20T08:27:20;5.00;99.90
3488;DHT22;38546;48.170;11.724;2023-12-20T08:30:10;5.00;99.90
3488;DHT22;38546;48.170;11.724;2023-12-20T08:33:00;5.10;99.90
3488;DHT22;38546;48.170;11.724;2023-12-20T08:35:49;5.10;99.90
3488;DHT22;38546;48.170;11.724;2023-12-20T08:38:40;5.00;99.90
3488;DHT22;38546;48.170;11.724;2023-12-20T08:41:29;5.00;99.90
3488;DHT22;38546;48.170;11.724;2023-12-20T08:44:18;4.90;99.90
3488;DHT22;38546;48.170;11.724;2023-12-20T08:47:07;5.00;99.90
3488;DHT22;38546;48.170;11.724;2023-12-20T08:49:57;5.00;99.90
3488;DHT22;38546;48.170;11.724;2023-12-20T08:52:48;4.90;99.90
3488;DHT22;38546;48.170;11.724;2023-12-20T08:55:37;5.00;99.90
3488;DHT22;38546;48.170;11.724;2023-12-20T08:58:27;5.00;99.90
3488;DHT22;38546;48.170;11.724;2023-12-20T09:01:17;5.00;99.90
3488;DHT22;38546;48.170;11.724;2023-12-20T09:04:07;4.90;99.90
3488;DHT22;38546;48.170;11.724;2023-12-20T09:06:59;4.90;99.90
3488;DHT22;38546;48.170;11.724;2023-12-20T09:09:49;5.00;99.90
3488;DHT22;38546;48.170;11.724;2023-12-20T09:12:39;5.00;99.90
3488;DHT22;38546;48.170;11.724;2023-12-20T09:15:29;4.90;99.90
3488;DHT22;38546;48.170;11.724;2023-12-20T09:18:19;5.10;99.90
3488;DHT22;38546;48.170;11.724;2023-12-20T09:21:08;5.10;99.90
3488;DHT22;38546;48.170;11.724;2023-12-20T09:23:57;5.10;99.90
3488;DHT22;38546;48.170;11.724;2023-12-20T09:26:46;5.20;99.90
3488;DHT22;38546;48.170;11.724;2023-12-20T09:29:35;5.30;99.90
3488;DHT22;38546;48.170;11.724;2023-12-20T09:32:24;5.20;99.90
3488;DHT22;38546;48.170;11.724;2023-12-20T09:35:14;5.20;99.90
3488;DHT22;38546;48.170;11.724;2023-12-20T09:38:04;5.20;99.90
3488;DHT22;38546;48.170;11.724;2023-12-20T09:40:53;5.20;99.90
3488;DHT22;38546;48.170;11.724;2023-12-20T09:43:44;5.30;99.90
3488;DHT22;38546;48.170;11.724;2023-12-20T09:46:34;5.20;99.90
3488;DHT22;38546;48.170;11.724;2023-12-20T09:49:25;5.40;99.90
3488;DHT22;38546;48.170;11.724;2023-12-20T09:52:18;5.40;99.90
3488;DHT22;38546;48.170;11.724;2023-12-20T09:55:08;5.40;99.90
3488;DHT22;38546;48.170;11.724;2023-12-20T09:57:59;5.40;99.90
3488;DHT22;38546;48.170;11.724;2023-12-20T10:00:51;5.50;99.90
3488;DHT22;38546;48.170;11.724;2023-12-20T10:03:41;5.50;99.90
3488;DHT22;38546;48.170;11.724;2023-12-20T10:06:30;5.50;99.90
3488;DHT22;38546;48.170;11.724;2023-12-20T10:09:19;5.50;99.90
3488;DHT22;38546;48.170;11.724;2023-12-20T10:12:09;5.50;99.90
3488;DHT22;38546;48.170;11.724;2023-12-20T10:14:58;5.60;99.90
3488;DHT22;38546;48.170;11.724;2023-12-20T10:17:49;5.60;99.90
3488;DHT22;38546;48.170;11.724;2023-12-20T10:20:40;5.50;99.90
3488;DHT22;38546;48.170;11.724;2023-12-20T10:23:30;5.60;99.90
3488;DHT22;38546;48.170;11.724;2023-12-20T10:26:21;5.70;99.90
3488;DHT22;38546;48.170;11.724;2023-12-20T10:29:12;5.70;99.90
3488;DHT22;38546;48.170;11.724;2023-12-20T10:32:25;5.80;99.90
3488;DHT22;38546;48.170;11.724;2023-12-20T10:35:15;5.90;99.90
3488;DHT22;38546;48.170;11.724;2023-12-20T10:38:06;5.90;99.90
3488;DHT22;38546;48.170;11.724;2023-12-20T10:40:57;5.80;99.90
3488;DHT22;38546;48.170;11.724;2023-12-20T10:43:48;5.80;99.90
3488;DHT22;38546;48.170;11.724;2023-12-20T10:46:39;6.00;99.90
3488;DHT22;38546;48.170;11.724;2023-12-20T10:49:30;6.00;99.90
3488;DHT22;38546;48.170;11.724;2023-12-20T10:52:23;6.00;99.90
3488;DHT22;38546;48.170;11.724;2023-12-20T10:55:13;6.10;99.90
3488;DHT22;38546;48.170;11.724;2023-12-20T10:58:08;6.10;99.90
3488;DHT22;38546;48.170;11.724;2023-12-20T11:01:01;6.20;99.90
3488;DHT22;38546;48.170;11.724;2023-12-20T11:03:52;6.20;99.90
3488;DHT22;38546;48.170;11.724;2023-12-20T11:06:53;6.30;99.90
3488;DHT22;38546;48.170;11.724;2023-12-20T11:09:55;6.10;99.90
3488;DHT22;38546;48.170;11.724;2023-12-20T11:13:16;6.10;99.90
3488;DHT22;38546;48.170;11.724;2023-12-20T11:16:10;6.20;99.90
3488;DHT22;38546;48.170;11.724;2023-12-20T11:19:05;6.10;99.90
3488;DHT22;38546;48.170;11.724;2023-12-20T11:21:54;6.00;99.90
3488;DHT22;38546;48.170;11.724;2023-12-20T11:24:47;6.10;99.90
3488;DHT22;38546;48.170;11.724;2023-12-20T11:27:40;6.10;99.90
3488;DHT22;38546;48.170;11.724;2023-12-20T11:30:41;6.20;99.90
3488;DHT22;38546;48.170;11.724;2023-12-20T11:33:41;6.10;99.90
3488;DHT22;38546;48.170;11.724;2023-12-20T11:36:32;6.10;99.90
3488;DHT22;38546;48.170;11.724;2023-12-20T11:39:21;6.20;99.90
3488;DHT22;38546;48.170;11.724;2023-12-20T11:42:10;6.10;99.90
3488;DHT22;38546;48.170;11.724;2023-12-20T11:45:02;6.10;99.90
3488;DHT22;38546;48.170;11.724;2023-12-20T11:47:52;6.10;99.90
3488;DHT22;38546;48.170;11.724;2023-12-20T11:50:46;6.20;99.90
3488;DHT22;38546;48.170;11.724;2023-12-20T11:53:36;6.20;99.90
3488;DHT22;38546;48.170;11.724;2023-12-20T11:56:26;6.20;99.90
3488;DHT22;38546;48.170;11.724;2023-12-20T11:59:15;6.30;99.90
3488;DHT22;38546;48.170;11.724;2023-12-20T12:02:05;6.20;99.90
3488;DHT22;38546;48.170;11.724;2023-12-20T12:04:55;6.30;99.90
3488;DHT22;38546;48.170;11.724;2023-12-20T12:07:45;6.40;99.90
3488;DHT22;38546;48.170;11.724;2023-12-20T12:10:34;6.50;99.90
3488;DHT22;38546;48.170;11.724;2023-12-20T12:13:23;6.50;99.90
3488;DHT22;38546;48.170;11.724;2023-12-20T12:16:22;6.60;99.90
3488;DHT22;38546;48.170;11.724;2023-12-20T12:19:25;6.80;99.90
3488;DHT22;38546;48.170;11.724;2023-12-20T12:22:15;6.90;99.90
3488;DHT22;38546;48.170;11.724;2023-12-20T12:25:12;6.80;99.90
3488;DHT22;38546;48.170;11.724;2023-12-20T12:28:03;6.70;99.90
3488;DHT22;38546;48.170;11.724;2023-12-20T12:30:59;6.80;99.90
3488;DHT22;38546;48.170;11.724;2023-12-20T12:33:48;6.70;99.90
3488;DHT22;38546;48.170;11.724;2023-12-20T12:36:39;6.70;99.90
3488;DHT22;38546;48.170;11.724;2023-12-20T12:39:29;6.60;99.90
3488;DHT22;38546;48.170;11.724;2023-12-20T12:42:18;6.70;99.90
3488;DHT22;38546;48.170;11.724;2023-12-20T12:45:08;6.70;99.90
3488;DHT22;38546;48.170;11.724;2023-12-20T12:47:58;6.80;99.90
3488;DHT22;38546;48.170;11.724;2023-12-20T12:50:47;6.80;99.90
3488;DHT22;38546;48.170;11.724;2023-12-20T12:53:36;6.70;99.90
3488;DHT22;38546;48.170;11.724;2023-12-20T12:56:26;6.60;99.90
3488;DHT22;38546;48.170;11.724;2023-12-20T12:59:15;6.40;99.90
3488;DHT22;38546;48.170;11.724;2023-12-20T13:02:05;6.50;99.90
3488;DHT22;38546;48.170;11.724;2023-12-20T13:04:54;6.60;99.90
3488;DHT22;38546;48.170;11.724;2023-12-20T13:07:44;6.40;99.90
3488;DHT22;38546;48.170;11.724;2023-12-20T13:10:34;6.30;99.90
3488;DHT22;38546;48.170;11.724;2023-12-20T13:13:23;6.00;99.90
3488;DHT22;38546;48.170;11.724;2023-12-20T13:16:13;5.90;99.90
3488;DHT22;38546;48.170;11.724;2023-12-20T13:19:02;5.70;99.90
3488;DHT22;38546;48.170;11.724;2023-12-20T13:21:51;5.50;99.90
3488;DHT22;38546;48.170;11.724;2023-12-20T13:24:40;5.30;99.90
3488;DHT22;38546;48.170;11.724;2023-12-20T13:27:30;5.20;99.90
3488;DHT22;38546;48.170;11.724;2023-12-20T13:30:19;5.20;99.90
3488;DHT22;38546;48.170;11.724;2023-12-20T13:33:08;5.20;99.90
3488;DHT22;38546;48.170;11.724;2023-12-20T13:35:58;5.10;99.90
3488;DHT22;38546;48.170;11.724;2023-12-20T13:38:48;5.00;99.90
3488;DHT22;38546;48.170;11.724;2023-12-20T13:41:39;4.90;99.90
3488;DHT22;38546;48.170;11.724;2023-12-20T13:44:29;4.90;99.90
3488;DHT22;38546;48.170;11.724;2023-12-20T13:47:20;4.80;99.90
3488;DHT22;38546;48.170;11.724;2023-12-20T13:50:09;5.00;99.90
3488;DHT22;38546;48.170;11.724;2023-12-20T13:52:58;5.00;99.90
3488;DHT22;38546;48.170;11.724;2023-12-20T13:55:47;5.00;99.90
3488;DHT22;38546;48.170;11.724;2023-12-20T13:58:37;5.00;99.90
3488;DHT22;38546;48.170;11.724;2023-12-20T14:01:26;5.10;99.90
3488;DHT22;38546;48.170;11.724;2023-12-20T14:04:15;5.10;99.90
3488;DHT22;38546;48.170;11.724;2023-12-20T14:07:05;5.10;99.90
3488;DHT22;38546;48.170;11.724;2023-12-20T14:09:56;5.10;99.90
3488;DHT22;38546;48.170;11.724;2023-12-20T14:12:45;5.00;99.90
3488;DHT22;38546;48.170;11.724;2023-12-20T14:15:35;5.00;99.90
3488;DHT22;38546;48.170;11.724;2023-12-20T14:18:26;5.10;99.90
3488;DHT22;38546;48.170;11.724;2023-12-20T14:21:15;5.10;99.90
3488;DHT22;38546;48.170;11.724;2023-12-20T14:24:05;5.20;99.90
3488;DHT22;38546;48.170;11.724;2023-12-20T14:26:55;5.00;99.90
3488;DHT22;38546;48.170;11.724;2023-12-20T14:29:44;5.10;99.90
3488;DHT22;38546;48.170;11.724;2023-12-20T14:32:35;5.10;99.90
3488;DHT22;38546;48.170;11.724;2023-12-20T14:35:27;5.10;99.90
3488;DHT22;38546;48.170;11.724;2023-12-20T14:38:16;5.00;99.90
3488;DHT22;38546;48.170;11.724;2023-12-20T14:41:05;5.10;99.90
3488;DHT22;38546;48.170;11.724;2023-12-20T14:43:57;5.20;99.90
3488;DHT22;38546;48.170;11.724;2023-12-20T14:46:48;5.10;99.90
3488;DHT22;38546;48.170;11.724;2023-12-20T14:49:39;5.10;99.90
3488;DHT22;38546;48.170;11.724;2023-12-20T14:52:28;5.20;99.90
3488;DHT22;38546;48.170;11.724;2023-12-20T14:55:18;5.10;99.90
3488;DHT22;38546;48.170;11.724;2023-12-20T14:58:08;5.10;99.90
3488;DHT22;38546;48.170;11.724;2023-12-20T15:01:00;5.20;99.90
3488;DHT22;38546;48.170;11.724;2023-12-20T15:03:50;5.10;99.90
3488;DHT22;38546;48.170;11.724;2023-12-20T15:06:39;5.00;99.90
3488;DHT22;38546;48.170;11.724;2023-12-20T15:09:28;5.00;99.90
3488;DHT22;38546;48.170;11.724;2023-12-20T15:12:18;4.90;99.90
3488;DHT22;38546;48.170;11.724;2023-12-20T15:15:08;4.90;99.90
3488;DHT22;38546;48.170;11.724;2023-12-20T15:18:01;5.00;99.90
3488;DHT22;38546;48.170;11.724;2023-12-20T15:20:52;5.00;99.90
3488;DHT22;38546;48.170;11.724;2023-12-20T15:23:41;5.00;99.90
3488;DHT22;38546;48.170;11.724;2023-12-20T15:26:42;4.90;99.90
3488;DHT22;38546;48.170;11.724;2023-12-20T15:29:32;4.90;99.90
3488;DHT22;38546;48.170;11.724;2023-12-20T15:32:21;5.00;99.90
3488;DHT22;38546;48.170;11.724;2023-12-20T15:35:11;4.90;99.90
3488;DHT22;38546;48.170;11.724;2023-12-20T15:38:00;4.80;99.90
3488;DHT22;38546;48.170;11.724;2023-12-20T15:40:50;4.90;99.90
3488;DHT22;38546;48.170;11.724;2023-12-20T15:43:39;5.00;99.90
3488;DHT22;38546;48.170;11.724;2023-12-20T15:46:28;5.00;99.90
3488;DHT22;38546;48.170;11.724;2023-12-20T15:49:16;4.90;99.90
3488;DHT22;38546;48.170;11.724;2023-12-20T15:52:07;5.00;99.90
3488;DHT22;38546;48.170;11.724;2023-12-20T15:54:56;5.00;99.90
3488;DHT22;38546;48.170;11.724;2023-12-20T15:57:45;5.00;99.90
3488;DHT22;38546;48.170;11.724;2023-12-20T16:00:34;5.10;99.90
3488;DHT22;38546;48.170;11.724;2023-12-20T16:03:23;4.90;99.90
3488;DHT22;38546;48.170;11.724;2023-12-20T16:06:12;4.70;99.90
3488;DHT22;38546;48.170;11.724;2023-12-20T16:09:02;4.70;99.90
3488;DHT22;38546;48.170;11.724;2023-12-20T16:11:51;4.80;99.90
3488;DHT22;38546;48.170;11.724;2023-12-20T16:14:40;4.80;99.90
3488;DHT22;38546;48.170;11.724;2023-12-20T16:17:29;4.70;99.90
3488;DHT22;38546;48.170;11.724;2023-12-20T16:20:18;4.60;99.90
3488;DHT22;38546;48.170;11.724;2023-12-20T16:23:07;4.60;99.90
3488;DHT22;38546;48.170;11.724;2023-12-20T16:25:56;4.40;99.90
3488;DHT22;38546;48.170;11.724;2023-12-20T16:28:46;4.30;99.90
3488;DHT22;38546;48.170;11.724;2023-12-20T16:31:35;4.20;99.90
3488;DHT22;38546;48.170;11.724;2023-12-20T16:34:24;4.30;99.90
3488;DHT22;38546;48.170;11.724;2023-12-20T16:37:13;4.30;99.90
3488;DHT22;38546;48.170;11.724;2023-12-20T16:40:02;4.20;99.90
3488;DHT22;38546;48.170;11.724;2023-12-20T16:42:53;4.30;99.90
3488;DHT22;38546;48.170;11.724;2023-12-20T16:45:45;4.30;99.90
3488;DHT22;38546;48.170;11.724;2023-12-20T16:48:36;4.40;99.90
3488;DHT22;38546;48.170;11.724;2023-12-20T16:51:25;4.50;99.90
3488;DHT22;38546;48.170;11.724;2023-12-20T16:54:17;4.50;99.90
3488;DHT22;38546;48.170;11.724;2023-12-20T16:57:06;4.50;99.90
3488;DHT22;38546;48.170;11.724;2023-12-20T16:59:55;4.60;99.90
3488;DHT22;38546;48.170;11.724;2023-12-20T17:02:45;4.60;99.90
3488;DHT22;38546;48.170;11.724;2023-12-20T17:05:34;4.50;99.90
3488;DHT22;38546;48.170;11.724;2023-12-20T17:08:23;4.70;99.90
3488;DHT22;38546;48.170;11.724;2023-12-20T17:11:13;4.70;99.90
3488;DHT22;38546;48.170;11.724;2023-12-20T17:14:02;4.60;99.90
3488;DHT22;38546;48.170;11.724;2023-12-20T17:16:51;4.40;99.90
3488;DHT22;38546;48.170;11.724;2023-12-20T17:19:41;4.40;99.90
3488;DHT22;38546;48.170;11.724;2023-12-20T17:22:30;4.30;99.90
3488;DHT22;38546;48.170;11.724;2023-12-20T17:25:19;4.40;99.90
3488;DHT22;38546;48.170;11.724;2023-12-20T17:28:10;4.40;99.90
3488;DHT22;38546;48.170;11.724;2023-12-20T17:30:59;4.40;99.90
3488;DHT22;38546;48.170;11.724;2023-12-20T17:33:49;4.20;99.90
3488;DHT22;38546;48.170;11.724;2023-12-20T17:36:40;4.00;99.90
3488;DHT22;38546;48.170;11.724;2023-12-20T17:39:30;4.00;99.90
3488;DHT22;38546;48.170;11.724;2023-12-20T17:42:19;4.10;99.90
3488;DHT22;38546;48.170;11.724;2023-12-20T17:45:08;4.20;99.90
3488;DHT22;38546;48.170;11.724;2023-12-20T17:47:57;4.10;99.90
3488;DHT22;38546;48.170;11.724;2023-12-20T17:50:47;4.10;99.90
3488;DHT22;38546;48.170;11.724;2023-12-20T17:53:36;4.30;99.90
3488;DHT22;38546;48.170;11.724;2023-12-20T17:56:27;4.40;99.90
3488;DHT22;38546;48.170;11.724;2023-12-20T17:59:17;4.30;99.90
3488;DHT22;38546;48.170;11.724;2023-12-20T18:02:06;4.40;99.90
3488;DHT22;38546;48.170;11.724;2023-12-20T18:04:55;4.40;99.90
3488;DHT22;38546;48.170;11.724;2023-12-20T18:07:44;4.50;99.90
3488;DHT22;38546;48.170;11.724;2023-12-20T18:10:35;4.60;99.90